• Join FlightAware (Why Join?)
  • Login
  • US Flag 
12:23AM EDT


 

Airport Tracker/Info


-or-


 

Live Flight TrackerFlight Track Log ✈ FLG3740 ✈ 23-Apr-2013 ✈ KCVG - KGRR

Flight Track Log - Related Links

Times and Time Zones

All times are in EDT time to prevent confusion due to time zone crossing. See the FLG3740 flight status page for this flight to view local times or setup timezone preferences in your user account.

Time Position Orientation Groundspeed Altitude Reporting Facility
EDT Latitude Longitude Course Direction KTS MPH feet Rate Location/Type
04:22PM 39.0500 -84.6833 351° North 145 167 1,500  Level Cincinnati TRACON
04:23PM 39.0500 -84.7500 270° West 189 217 3,700 1,920 Climbing Cincinnati TRACON
04:24PM 39.0500 -84.8500 270° West 260 299 6,000 2,220 Climbing Cincinnati TRACON
04:25PM 38.9501 -84.8434 313° West  Level FlightAware Approximate
04:25PM 39.0583 -84.8928 284° West 250 288 7,800  Level Indianapolis Center
04:26PM 39.0513 -84.8903 351° North  Level FlightAware Approximate
04:27PM 39.1612 -84.9122 351° North  Level FlightAware Approximate
04:27PM 39.2483 -84.9464 348° North 335 386 12,300  Level Indianapolis Center
04:28PM 39.3481 -84.9686 350° North 356 410 13,700 1,560 Climbing Indianapolis Center
04:29PM 39.4483 -84.9917 350° North 362 417 15,600 1,800 Climbing Indianapolis Center
04:30PM 39.5597 -85.0164 350° North 374 430 17,500 1,740 Climbing Indianapolis Center
04:31PM 39.6464 -85.0583 340° North 353 406 19,200 1,200 Climbing Indianapolis Center
04:32PM 39.7533 -85.1181 337° Northwest 355 409 20,000 360 Climbing Indianapolis Center
04:33PM 39.8486 -85.1711 337° Northwest 367 422 20,000  Level Indianapolis Center
04:34PM 39.9447 -85.2258 336° Northwest 374 430 20,000  Level Indianapolis Center
04:35PM 40.0408 -85.2806 336° Northwest 374 430 20,000  Level Indianapolis Center
04:36PM 40.1367 -85.3342 337° Northwest 374 430 20,000  Level Indianapolis Center
04:37PM 40.2333 -85.3867 337° Northwest 376 433 20,000  Level Chicago Center
04:38PM 40.3425 -85.3989 355° North 393 452 20,000  Level Chicago Center
04:39PM 40.4528 -85.4089 356° North 395 455 20,000  Level Chicago Center
04:40PM 40.5644 -85.4178 357° North 398 458 20,000  Level Chicago Center
04:41PM 40.6744 -85.4264 357° North 401 461 20,000  Level Chicago Center
04:42PM 40.8097 -85.4358 357° North 405 466 20,000  Level Chicago Center
04:43PM 40.9233 -85.4453 356° North 409 471 20,000  Level Chicago Center
04:44PM 41.0372 -85.4556 356° North 410 472 20,000  Level Chicago Center
04:45PM 41.1522 -85.4644 357° North 413 475 20,000  Level Chicago Center
04:46PM 41.2672 -85.4736 357° North 413 475 20,000  Level Chicago Center
04:47PM 41.3842 -85.4831 357° North 419 482 20,000  Level Chicago Center
04:49PM 41.5269 -85.4953 356° North 425 489 20,000  Level Chicago Center
04:50PM 41.6503 -85.5056 356° North 426 490 20,000  Level Chicago Center
04:51PM 41.7722 -85.5156 357° North 427 491 20,000 -540 Level Chicago Center
04:52PM 41.8833 -85.5242 357° North 400 460 19,000 -1,500 Descending Chicago Center
04:53PM 41.9853 -85.5325 357° North 370 426 17,000 -2,040 Descending Chicago Center
04:54PM 42.0994 -85.5408 357° North 375 432 14,800 -2,040 Descending Chicago Center
04:55PM 42.1994 -85.5497 356° North 365 420 12,800 -1,980 Descending Chicago Center
04:56PM 42.2953 -85.5519 359° North 350 403 10,800 -1,740 Descending Chicago Center
04:57PM 42.3867 -85.5453 North 334 384 9,300 -1,200 Descending Chicago Center
04:58PM 42.4628 -85.4986 24° Northeast 315 362 8,300 -1,140 Descending Chicago Center
04:59PM 42.5542 -85.4281 30° Northeast 315 362 7,000 -1,200 Descending Chicago Center
05:00PM 42.6278 -85.3719 29° Northeast 310 357 5,900 -1,080 Descending Chicago Center
05:01PM 42.7008 -85.3189 28° Northeast 303 349 4,800 -1,260 Descending Chicago Center
05:02PM 42.7706 -85.2694 27° Northeast 290 334 3,300 -1,080 Descending Chicago Center
05:03PM 42.8314 -85.2433 17° North 262 302 2,600 -360 Descending Chicago Center
05:04PM 42.8903 -85.2606 348° North 235 270 2,600  Level Chicago Center